Terminal Aerodrome Forecast
Issued by NWS Sterling, VA

Current Version | Previous Version | Text Only | Print | Product List | Glossary Off
Versions: 1 2 3 4 5 6 7 8 9 10 11 12 13 14 15 16 17 18 19 20 21 22 23 24 25

000
FTUS41 KLWX 211445 AAA
TAFDCA
TAF AMD
KDCA 211445Z 2115/2212 19009KT P6SM VCSH BKN040
     FM211700 22009KT 3SM +TSRA OVC045CB
     FM211900 24008KT 5SM +TSRA OVC050CB
     FM212100 28007KT P6SM OVC045
     FM220200 30012G19KT P6SM SCT250=

USA.gov is the U.S. government's official web portal to all federal, state and local government web resources and services.